TRA9YA LYTV-EBCI
Flight info
| Callsign | TRA9YA |
|---|---|
| Flight time | N/A |
| Altitude | 38000 |
| Route | TIBRI DCT NERRA DCT URAVA DCT VEKEN DCT ERKIR DCT ETAGO DCT SUNEG DCT LIRSU L608 BATTY |
| Aircraft | B738/M-SDE2E3FGHIRWXY/LB1 |
Departure
| Time | 2026-05-05 21:04 |
|---|---|
| Airport | Tivat Airport (LYTV) |
Arrival
| Time | N/A |
|---|---|
| Airport | Brussels South Charleroi Airport (EBCI) |
| Time | Latitude | Longitude | Altitude | Speed | Heading |
|---|---|---|---|---|---|
| 2026-05-05 20:28 | 42.41198 | 18.71707 | 7 ft | 0 kts | 180° |
| 2026-05-05 20:55 | 42.41196 | 18.71707 | 7 ft | 0 kts | 180° |
| 2026-05-05 20:55 | 42.41186 | 18.71710 | 7 ft | 4 kts | 165° |
| 2026-05-05 20:56 | 42.41151 | 18.71739 | 7 ft | 7 kts | 147° |
| 2026-05-05 20:56 | 42.41100 | 18.71766 | 5 ft | 8 kts | 156° |
| 2026-05-05 20:56 | 42.41056 | 18.71807 | 6 ft | 7 kts | 139° |
| 2026-05-05 20:56 | 42.41030 | 18.71839 | 6 ft | 4 kts | 138° |
| 2026-05-05 20:57 | 42.41016 | 18.71850 | 6 ft | 1 kts | 160° |
| 2026-05-05 20:57 | 42.41009 | 18.71851 | 6 ft | 2 kts | 181° |
| 2026-05-05 20:57 | 42.40985 | 18.71836 | 6 ft | 6 kts | 213° |
| 2026-05-05 20:57 | 42.40953 | 18.71796 | 5 ft | 6 kts | 206° |
| 2026-05-05 20:58 | 42.40916 | 18.71800 | 6 ft | 5 kts | 154° |
| 2026-05-05 20:58 | 42.40886 | 18.71833 | 4 ft | 9 kts | 139° |
| 2026-05-05 20:58 | 42.40827 | 18.71902 | 2 ft | 12 kts | 139° |
| 2026-05-05 20:58 | 42.40767 | 18.71974 | 2 ft | 11 kts | 138° |
| 2026-05-05 20:59 | 42.40695 | 18.72061 | 0 ft | 17 kts | 139° |
| 2026-05-05 20:59 | 42.40590 | 18.72183 | 0 ft | 23 kts | 138° |
| 2026-05-05 20:59 | 42.40468 | 18.72324 | 2 ft | 23 kts | 140° |
| 2026-05-05 20:59 | 42.40354 | 18.72456 | 5 ft | 20 kts | 139° |
| 2026-05-05 21:00 | 42.40259 | 18.72570 | 4 ft | 18 kts | 139° |
| 2026-05-05 21:00 | 42.40170 | 18.72673 | 4 ft | 16 kts | 139° |
| 2026-05-05 21:00 | 42.40088 | 18.72769 | 2 ft | 16 kts | 139° |
| 2026-05-05 21:00 | 42.40006 | 18.72867 | 0 ft | 15 kts | 138° |
| 2026-05-05 21:01 | 42.39931 | 18.72955 | 0 ft | 14 kts | 139° |
| 2026-05-05 21:01 | 42.39860 | 18.73040 | -1 ft | 13 kts | 138° |
| 2026-05-05 21:01 | 42.39796 | 18.73115 | 0 ft | 10 kts | 139° |
| 2026-05-05 21:01 | 42.39750 | 18.73169 | 2 ft | 7 kts | 140° |
| 2026-05-05 21:02 | 42.39709 | 18.73216 | 2 ft | 9 kts | 140° |
| 2026-05-05 21:02 | 42.39665 | 18.73256 | 1 ft | 8 kts | 159° |
| 2026-05-05 21:02 | 42.39638 | 18.73266 | 1 ft | 1 kts | 155° |
| 2026-05-05 21:02 | 42.39631 | 18.73281 | 2 ft | 1 kts | 108° |
| 2026-05-05 21:03 | 42.39634 | 18.73287 | 2 ft | 0 kts | 64° |
| 2026-05-05 21:03 | 42.39638 | 18.73288 | 2 ft | 0 kts | 19° |
| 2026-05-05 21:03 | 42.39654 | 18.73279 | 3 ft | 3 kts | 322° |
| 2026-05-05 21:03 | 42.39756 | 18.73163 | 2 ft | 51 kts | 319° |
| 2026-05-05 21:04 | 42.40210 | 18.72629 | 4 ft | 121 kts | 319° |
| 2026-05-05 21:04 | 42.41015 | 18.71718 | 27 ft | 177 kts | 323° |
| 2026-05-05 21:04 | 42.41909 | 18.70503 | 727 ft | 180 kts | 305° |
| 2026-05-05 21:04 | 42.42420 | 18.69010 | 1644 ft | 178 kts | 285° |
| 2026-05-05 21:05 | 42.42723 | 18.67293 | 2177 ft | 197 kts | 276° |
| 2026-05-05 21:05 | 42.42784 | 18.65445 | 3028 ft | 193 kts | 261° |
| 2026-05-05 21:05 | 42.42523 | 18.63775 | 4192 ft | 173 kts | 252° |
| 2026-05-05 21:05 | 42.42145 | 18.62119 | 4573 ft | 201 kts | 246° |
| 2026-05-05 21:06 | 42.41680 | 18.60231 | 4805 ft | 222 kts | 249° |
| 2026-05-05 21:06 | 42.41299 | 18.58117 | 5170 ft | 239 kts | 257° |
| 2026-05-05 21:06 | 42.41070 | 18.55794 | 5538 ft | 262 kts | 261° |
| 2026-05-05 21:06 | 42.41114 | 18.53270 | 6233 ft | 273 kts | 281° |
| 2026-05-05 21:07 | 42.41827 | 18.50895 | 7273 ft | 272 kts | 297° |
| 2026-05-05 21:07 | 42.42876 | 18.48753 | 8134 ft | 277 kts | 307° |
| 2026-05-05 21:07 | 42.44155 | 18.46809 | 9036 ft | 277 kts | 310° |
| 2026-05-05 21:07 | 42.44268 | 18.46642 | 9126 ft | 277 kts | 310° |
| 2026-05-05 21:08 | 42.45031 | 18.45508 | 9482 ft | 279 kts | 310° |
| 2026-05-05 21:08 | 42.46292 | 18.43544 | 9551 ft | 273 kts | 308° |
| 2026-05-05 21:08 | 42.47487 | 18.41555 | 9731 ft | 274 kts | 306° |
| 2026-05-05 21:08 | 42.48655 | 18.39494 | 10154 ft | 276 kts | 305° |
| 2026-05-05 21:09 | 42.49842 | 18.37309 | 10369 ft | 302 kts | 304° |
| 2026-05-05 21:09 | 42.51109 | 18.34905 | 10550 ft | 326 kts | 304° |
| 2026-05-05 21:09 | 42.52434 | 18.32334 | 10911 ft | 342 kts | 303° |
| 2026-05-05 21:09 | 42.53805 | 18.29628 | 11636 ft | 346 kts | 303° |
| 2026-05-05 21:10 | 42.55158 | 18.26927 | 12406 ft | 348 kts | 303° |
| 2026-05-05 21:10 | 42.56508 | 18.24210 | 13126 ft | 353 kts | 303° |
| 2026-05-05 21:10 | 42.57887 | 18.21418 | 13848 ft | 356 kts | 302° |
| 2026-05-05 21:10 | 42.59277 | 18.18597 | 14520 ft | 360 kts | 302° |
| 2026-05-05 21:11 | 42.60659 | 18.15784 | 15155 ft | 363 kts | 302° |
| 2026-05-05 21:11 | 42.62063 | 18.12920 | 15771 ft | 367 kts | 302° |
| 2026-05-05 21:11 | 42.63007 | 18.10993 | 16188 ft | 370 kts | 302° |
| 2026-05-05 21:11 | 42.64923 | 18.07078 | 17002 ft | 375 kts | 302° |
| 2026-05-05 21:12 | 42.66369 | 18.04119 | 17607 ft | 379 kts | 302° |
| 2026-05-05 21:12 | 42.67830 | 18.01126 | 18197 ft | 383 kts | 302° |
| 2026-05-05 21:12 | 42.68813 | 17.99112 | 18548 ft | 386 kts | 302° |
| 2026-05-05 21:12 | 42.70295 | 17.96070 | 19099 ft | 388 kts | 302° |
| 2026-05-05 21:13 | 42.71802 | 17.92975 | 19690 ft | 389 kts | 302° |
| 2026-05-05 21:13 | 42.73269 | 17.89960 | 20241 ft | 391 kts | 302° |
| 2026-05-05 21:13 | 42.73578 | 17.89324 | 20355 ft | 391 kts | 302° |
| 2026-05-05 21:14 | 42.74358 | 17.87719 | 20624 ft | 393 kts | 302° |
| 2026-05-05 21:14 | 42.75865 | 17.84616 | 21132 ft | 395 kts | 302° |
| 2026-05-05 21:14 | 42.76329 | 17.83660 | 21303 ft | 396 kts | 302° |
| 2026-05-05 21:15 | 42.76824 | 17.82639 | 21458 ft | 397 kts | 302° |
| 2026-05-05 21:15 | 42.78355 | 17.79480 | 21969 ft | 399 kts | 302° |
| 2026-05-05 21:15 | 42.79884 | 17.76323 | 22461 ft | 401 kts | 302° |
| 2026-05-05 21:16 | 42.81420 | 17.73146 | 22959 ft | 404 kts | 302° |
| 2026-05-05 21:16 | 42.81667 | 17.72635 | 23032 ft | 404 kts | 302° |
| 2026-05-05 21:16 | 42.82233 | 17.71464 | 23189 ft | 405 kts | 302° |
| 2026-05-05 21:16 | 42.83787 | 17.68246 | 23637 ft | 409 kts | 302° |
| 2026-05-05 21:17 | 42.84010 | 17.67782 | 23698 ft | 409 kts | 302° |
| 2026-05-05 21:18 | 42.85136 | 17.65449 | 24000 ft | 410 kts | 302° |
| 2026-05-05 21:18 | 42.85881 | 17.63903 | 24211 ft | 410 kts | 302° |
| 2026-05-05 21:19 | 42.85961 | 17.63738 | 24222 ft | 411 kts | 302° |
| 2026-05-05 21:19 | 42.87551 | 17.60438 | 24677 ft | 411 kts | 302° |
| 2026-05-05 21:19 | 42.89103 | 17.57224 | 25102 ft | 412 kts | 303° |
| 2026-05-05 21:19 | 42.90891 | 17.54161 | 25487 ft | 415 kts | 311° |
| 2026-05-05 21:20 | 42.93018 | 17.51485 | 25864 ft | 418 kts | 320° |
| 2026-05-05 21:20 | 42.95329 | 17.49054 | 26256 ft | 420 kts | 320° |
| 2026-05-05 21:20 | 42.97655 | 17.46631 | 26616 ft | 421 kts | 320° |
| 2026-05-05 21:20 | 42.99990 | 17.44198 | 26972 ft | 423 kts | 320° |
| 2026-05-05 21:21 | 43.02315 | 17.41764 | 27324 ft | 424 kts | 320° |
| 2026-05-05 21:21 | 43.02610 | 17.41454 | 27365 ft | 424 kts | 320° |
| 2026-05-05 21:21 | 43.04434 | 17.39536 | 27648 ft | 425 kts | 320° |
| 2026-05-05 21:21 | 43.06780 | 17.37057 | 27978 ft | 427 kts | 320° |
| 2026-05-05 21:22 | 43.09132 | 17.34563 | 28302 ft | 429 kts | 320° |
| 2026-05-05 21:22 | 43.11490 | 17.32056 | 28640 ft | 430 kts | 320° |
| 2026-05-05 21:22 | 43.13852 | 17.29541 | 28977 ft | 431 kts | 320° |
| 2026-05-05 21:22 | 43.16221 | 17.27015 | 29294 ft | 432 kts | 320° |
| 2026-05-05 21:23 | 43.18593 | 17.24482 | 29650 ft | 432 kts | 320° |
| 2026-05-05 21:23 | 43.20957 | 17.21957 | 30133 ft | 429 kts | 320° |
| 2026-05-05 21:23 | 43.23303 | 17.19450 | 30597 ft | 426 kts | 319° |
| 2026-05-05 21:23 | 43.25628 | 17.16962 | 31029 ft | 423 kts | 319° |
| 2026-05-05 21:24 | 43.27941 | 17.14483 | 31369 ft | 421 kts | 319° |
| 2026-05-05 21:24 | 43.30250 | 17.12006 | 31680 ft | 421 kts | 319° |
| 2026-05-05 21:24 | 43.32556 | 17.09530 | 32092 ft | 418 kts | 319° |
| 2026-05-05 21:24 | 43.34835 | 17.07081 | 32484 ft | 415 kts | 319° |
| 2026-05-05 21:25 | 43.37104 | 17.04640 | 32834 ft | 414 kts | 319° |
| 2026-05-05 21:25 | 43.39369 | 17.02201 | 33126 ft | 414 kts | 318° |
| 2026-05-05 21:25 | 43.41633 | 16.99760 | 33438 ft | 413 kts | 318° |
| 2026-05-05 21:25 | 43.43895 | 16.97319 | 33816 ft | 411 kts | 318° |
| 2026-05-05 21:26 | 43.46138 | 16.94897 | 34181 ft | 409 kts | 318° |
| 2026-05-05 21:26 | 43.48342 | 16.92514 | 34430 ft | 408 kts | 318° |
| 2026-05-05 21:26 | 43.50609 | 16.90060 | 34615 ft | 410 kts | 318° |
| 2026-05-05 21:26 | 43.52823 | 16.87661 | 34804 ft | 411 kts | 318° |
| 2026-05-05 21:27 | 43.55066 | 16.85228 | 35055 ft | 410 kts | 318° |
| 2026-05-05 21:27 | 43.57303 | 16.82800 | 35332 ft | 409 kts | 318° |
| 2026-05-05 21:27 | 43.59538 | 16.80373 | 35540 ft | 409 kts | 318° |
| 2026-05-05 21:27 | 43.61776 | 16.77939 | 35733 ft | 410 kts | 318° |
| 2026-05-05 21:28 | 43.64015 | 16.75502 | 35952 ft | 410 kts | 318° |
| 2026-05-05 21:28 | 43.66251 | 16.73066 | 36174 ft | 409 kts | 318° |
| 2026-05-05 21:28 | 43.68485 | 16.70629 | 36364 ft | 410 kts | 318° |
| 2026-05-05 21:28 | 43.70722 | 16.68187 | 36531 ft | 410 kts | 318° |
| 2026-05-05 21:29 | 43.72968 | 16.65732 | 36644 ft | 412 kts | 318° |
| 2026-05-05 21:29 | 43.75214 | 16.63275 | 36840 ft | 412 kts | 318° |
| 2026-05-05 21:29 | 43.77461 | 16.60815 | 37084 ft | 411 kts | 318° |
| 2026-05-05 21:29 | 43.79706 | 16.58355 | 37219 ft | 412 kts | 318° |
| 2026-05-05 21:30 | 43.81962 | 16.55879 | 37320 ft | 415 kts | 318° |
| 2026-05-05 21:30 | 43.84220 | 16.53399 | 37485 ft | 415 kts | 318° |
| 2026-05-05 21:30 | 43.86479 | 16.50916 | 37697 ft | 414 kts | 318° |
| 2026-05-05 21:30 | 43.88735 | 16.48435 | 37899 ft | 414 kts | 318° |
| 2026-05-05 21:31 | 43.90993 | 16.45948 | 38044 ft | 415 kts | 318° |
| 2026-05-05 21:31 | 43.93257 | 16.43451 | 38083 ft | 417 kts | 318° |
| 2026-05-05 21:31 | 43.97798 | 16.38437 | 38079 ft | 415 kts | 318° |
| 2026-05-05 21:32 | 44.02297 | 16.33462 | 38087 ft | 411 kts | 318° |
| 2026-05-05 21:32 | 44.06757 | 16.28518 | 38079 ft | 409 kts | 318° |
| 2026-05-05 21:33 | 44.11196 | 16.23587 | 38083 ft | 408 kts | 318° |
| 2026-05-05 21:33 | 44.15638 | 16.18641 | 38084 ft | 409 kts | 318° |
| 2026-05-05 21:34 | 44.20094 | 16.13670 | 38074 ft | 412 kts | 317° |
| 2026-05-05 21:34 | 44.24548 | 16.08692 | 38089 ft | 415 kts | 318° |
| 2026-05-05 21:35 | 44.29070 | 16.03628 | 38077 ft | 418 kts | 318° |
| 2026-05-05 21:35 | 44.33622 | 15.98520 | 38070 ft | 421 kts | 318° |
| 2026-05-05 21:36 | 44.38203 | 15.93371 | 38069 ft | 424 kts | 318° |
| 2026-05-05 21:36 | 44.42810 | 15.88181 | 38069 ft | 426 kts | 317° |
| 2026-05-05 21:37 | 44.47433 | 15.82961 | 38077 ft | 427 kts | 317° |
| 2026-05-05 21:37 | 44.52064 | 15.77723 | 38066 ft | 428 kts | 318° |
| 2026-05-05 21:38 | 44.56683 | 15.72486 | 38058 ft | 427 kts | 318° |
| 2026-05-05 21:38 | 44.61293 | 15.67250 | 38053 ft | 425 kts | 318° |
| 2026-05-05 21:39 | 44.65879 | 15.62030 | 38070 ft | 423 kts | 317° |
| 2026-05-05 21:39 | 44.70432 | 15.56836 | 38052 ft | 420 kts | 316° |
| 2026-05-05 21:40 | 44.74954 | 15.51665 | 38053 ft | 418 kts | 317° |
| 2026-05-05 21:40 | 44.79466 | 15.46495 | 38041 ft | 418 kts | 317° |
| 2026-05-05 21:41 | 44.83973 | 15.41318 | 38042 ft | 419 kts | 317° |
| 2026-05-05 21:41 | 44.88465 | 15.36150 | 38069 ft | 419 kts | 316° |
| 2026-05-05 21:42 | 44.92984 | 15.30941 | 38030 ft | 419 kts | 316° |
| 2026-05-05 21:42 | 44.97491 | 15.25735 | 38033 ft | 418 kts | 316° |
| 2026-05-05 21:43 | 45.01986 | 15.20531 | 38024 ft | 418 kts | 316° |
| 2026-05-05 21:43 | 45.06479 | 15.15318 | 38033 ft | 418 kts | 316° |
| 2026-05-05 21:44 | 45.10968 | 15.10099 | 38014 ft | 417 kts | 316° |
| 2026-05-05 21:44 | 45.15443 | 15.04886 | 38036 ft | 417 kts | 316° |
| 2026-05-05 21:45 | 45.19931 | 14.99645 | 38020 ft | 419 kts | 316° |
| 2026-05-05 21:45 | 45.24441 | 14.94367 | 38045 ft | 421 kts | 316° |
| 2026-05-05 21:46 | 45.28978 | 14.89047 | 38039 ft | 424 kts | 316° |
| 2026-05-05 21:46 | 45.33543 | 14.83683 | 38069 ft | 427 kts | 315° |
| 2026-05-05 21:47 | 45.38063 | 14.78368 | 38033 ft | 416 kts | 315° |
| 2026-05-05 21:47 | 45.42494 | 14.73142 | 38025 ft | 415 kts | 315° |
| 2026-05-05 21:48 | 45.46936 | 14.67880 | 38036 ft | 421 kts | 315° |
| 2026-05-05 21:48 | 45.51449 | 14.62528 | 38040 ft | 426 kts | 315° |
| 2026-05-05 21:49 | 45.56027 | 14.57090 | 38038 ft | 430 kts | 315° |
| 2026-05-05 21:49 | 45.60600 | 14.51653 | 38023 ft | 423 kts | 315° |
| 2026-05-05 21:50 | 45.65071 | 14.46328 | 38034 ft | 417 kts | 314° |
| 2026-05-05 21:50 | 45.69533 | 14.40989 | 38019 ft | 419 kts | 315° |
| 2026-05-05 21:51 | 45.74002 | 14.35630 | 38016 ft | 420 kts | 314° |
| 2026-05-05 21:51 | 45.78484 | 14.30249 | 38029 ft | 422 kts | 314° |
| 2026-05-05 21:52 | 45.85269 | 14.22078 | 38020 ft | 427 kts | 315° |
| 2026-05-05 21:53 | 45.89835 | 14.16566 | 38015 ft | 430 kts | 315° |
| 2026-05-05 21:53 | 45.94398 | 14.11046 | 38000 ft | 433 kts | 315° |
| 2026-05-05 21:54 | 45.99002 | 14.05464 | 38009 ft | 434 kts | 315° |
| 2026-05-05 21:54 | 46.03618 | 13.99856 | 38008 ft | 434 kts | 315° |
| 2026-05-05 21:55 | 46.08225 | 13.94245 | 38004 ft | 434 kts | 315° |
| 2026-05-05 21:55 | 46.12835 | 13.88617 | 38020 ft | 435 kts | 315° |
| 2026-05-05 21:56 | 46.17463 | 13.82952 | 38001 ft | 436 kts | 314° |
| 2026-05-05 21:56 | 46.22084 | 13.77285 | 37997 ft | 435 kts | 314° |
| 2026-05-05 21:57 | 46.26694 | 13.71619 | 37991 ft | 435 kts | 314° |
| 2026-05-05 21:57 | 46.31310 | 13.65930 | 37990 ft | 436 kts | 315° |
| 2026-05-05 21:58 | 46.35939 | 13.60212 | 37998 ft | 439 kts | 315° |
| 2026-05-05 21:58 | 46.39810 | 13.55421 | 37997 ft | 442 kts | 315° |
| 2026-05-05 21:59 | 46.45504 | 13.48980 | 37989 ft | 447 kts | 320° |
| 2026-05-05 21:59 | 46.50641 | 13.43849 | 37996 ft | 449 kts | 320° |
| 2026-05-05 22:00 | 46.55719 | 13.38620 | 37984 ft | 452 kts | 319° |
| 2026-05-05 22:00 | 46.60450 | 13.32680 | 37999 ft | 450 kts | 311° |
| 2026-05-05 22:01 | 46.64953 | 13.26334 | 37996 ft | 452 kts | 311° |
| 2026-05-05 22:01 | 46.69451 | 13.20005 | 37985 ft | 454 kts | 312° |
| 2026-05-05 22:02 | 46.73261 | 13.14705 | 37970 ft | 453 kts | 312° |
| 2026-05-05 22:02 | 46.77831 | 13.08377 | 37983 ft | 453 kts | 311° |
| 2026-05-05 22:03 | 46.82394 | 13.02051 | 37970 ft | 452 kts | 311° |
| 2026-05-05 22:03 | 46.86929 | 12.95747 | 37999 ft | 448 kts | 311° |
| 2026-05-05 22:04 | 46.91408 | 12.89507 | 37955 ft | 447 kts | 311° |
| 2026-05-05 22:04 | 46.95899 | 12.83231 | 37933 ft | 446 kts | 311° |
| 2026-05-05 22:05 | 47.00362 | 12.76979 | 37956 ft | 446 kts | 311° |
| 2026-05-05 22:05 | 47.04865 | 12.70647 | 37937 ft | 451 kts | 311° |
| 2026-05-05 22:06 | 47.09418 | 12.64235 | 37947 ft | 456 kts | 311° |
| 2026-05-05 22:06 | 47.14013 | 12.57750 | 37912 ft | 459 kts | 311° |
| 2026-05-05 22:07 | 47.18613 | 12.51244 | 37871 ft | 459 kts | 311° |
| 2026-05-05 22:07 | 47.23183 | 12.44767 | 37910 ft | 457 kts | 311° |
| 2026-05-05 22:08 | 47.27758 | 12.38259 | 37883 ft | 458 kts | 310° |
| 2026-05-05 22:08 | 47.32330 | 12.31741 | 37911 ft | 457 kts | 310° |
| 2026-05-05 22:09 | 47.36885 | 12.25229 | 37906 ft | 456 kts | 311° |
| 2026-05-05 22:09 | 47.41427 | 12.18720 | 37886 ft | 456 kts | 310° |
| 2026-05-05 22:10 | 47.45970 | 12.12192 | 37884 ft | 455 kts | 310° |
| 2026-05-05 22:10 | 47.50499 | 12.05670 | 37884 ft | 454 kts | 310° |
| 2026-05-05 22:11 | 47.54880 | 11.98989 | 37860 ft | 449 kts | 302° |
| 2026-05-05 22:11 | 47.58530 | 11.91552 | 37880 ft | 446 kts | 300° |
| 2026-05-05 22:12 | 47.62091 | 11.84029 | 37873 ft | 446 kts | 300° |
| 2026-05-05 22:12 | 47.65687 | 11.76508 | 37879 ft | 447 kts | 300° |
| 2026-05-05 22:13 | 47.69309 | 11.68996 | 37870 ft | 448 kts | 300° |
| 2026-05-05 22:13 | 47.72940 | 11.61476 | 37892 ft | 448 kts | 300° |
| 2026-05-05 22:14 | 47.76573 | 11.53933 | 37884 ft | 449 kts | 300° |
| 2026-05-05 22:14 | 47.80179 | 11.46425 | 37886 ft | 449 kts | 300° |
| 2026-05-05 22:15 | 47.83810 | 11.38840 | 37898 ft | 450 kts | 300° |
| 2026-05-05 22:15 | 47.87432 | 11.31254 | 37903 ft | 450 kts | 300° |
| 2026-05-05 22:16 | 47.91055 | 11.23642 | 37897 ft | 450 kts | 300° |
| 2026-05-05 22:16 | 47.94669 | 11.16030 | 37911 ft | 450 kts | 300° |
| 2026-05-05 22:17 | 47.98279 | 11.08404 | 37935 ft | 450 kts | 300° |
| 2026-05-05 22:17 | 48.01879 | 11.00780 | 37897 ft | 450 kts | 300° |
| 2026-05-05 22:18 | 48.05476 | 10.93139 | 37888 ft | 449 kts | 300° |
| 2026-05-05 22:18 | 48.09063 | 10.85498 | 37884 ft | 449 kts | 300° |
| 2026-05-05 22:19 | 48.12642 | 10.77852 | 37890 ft | 448 kts | 300° |
| 2026-05-05 22:19 | 48.16214 | 10.70200 | 37899 ft | 448 kts | 300° |
| 2026-05-05 22:20 | 48.19784 | 10.62531 | 37896 ft | 448 kts | 300° |
| 2026-05-05 22:20 | 48.23350 | 10.54848 | 37889 ft | 449 kts | 300° |
| 2026-05-05 22:21 | 48.26915 | 10.47146 | 37895 ft | 450 kts | 300° |
| 2026-05-05 22:21 | 48.30480 | 10.39420 | 37886 ft | 451 kts | 300° |
| 2026-05-05 22:22 | 48.34049 | 10.31666 | 37897 ft | 452 kts | 300° |
| 2026-05-05 22:22 | 48.37619 | 10.23887 | 37894 ft | 453 kts | 300° |
| 2026-05-05 22:23 | 48.41193 | 10.16076 | 37888 ft | 453 kts | 300° |
| 2026-05-05 22:23 | 48.44769 | 10.08240 | 37887 ft | 454 kts | 300° |
| 2026-05-05 22:24 | 48.48344 | 10.00382 | 37876 ft | 455 kts | 300° |
| 2026-05-05 22:24 | 48.51918 | 9.92502 | 37862 ft | 456 kts | 300° |
| 2026-05-05 22:25 | 48.55494 | 9.84596 | 37882 ft | 456 kts | 300° |
| 2026-05-05 22:25 | 48.59066 | 9.76676 | 37880 ft | 457 kts | 300° |
| 2026-05-05 22:26 | 48.62642 | 9.68725 | 37876 ft | 457 kts | 300° |
| 2026-05-05 22:26 | 48.66208 | 9.60768 | 37857 ft | 457 kts | 300° |
| 2026-05-05 22:27 | 48.69772 | 9.52797 | 37869 ft | 457 kts | 300° |
| 2026-05-05 22:27 | 48.73535 | 9.45093 | 37864 ft | 462 kts | 310° |
| 2026-05-05 22:28 | 48.78464 | 9.38659 | 37857 ft | 466 kts | 317° |
| 2026-05-05 22:28 | 48.83477 | 9.32541 | 37853 ft | 465 kts | 317° |
| 2026-05-05 22:29 | 48.88522 | 9.26278 | 37852 ft | 465 kts | 317° |
| 2026-05-05 22:29 | 48.93474 | 9.20039 | 37869 ft | 465 kts | 317° |
| 2026-05-05 22:30 | 48.98443 | 9.13746 | 37855 ft | 465 kts | 317° |
| 2026-05-05 22:30 | 49.03409 | 9.07443 | 37844 ft | 465 kts | 317° |
| 2026-05-05 22:31 | 49.08380 | 9.01121 | 37845 ft | 465 kts | 317° |
| 2026-05-05 22:31 | 49.13340 | 8.94796 | 37837 ft | 465 kts | 317° |
| 2026-05-05 22:32 | 49.18287 | 8.88451 | 37843 ft | 464 kts | 315° |
| 2026-05-05 22:32 | 49.22384 | 8.80984 | 37847 ft | 457 kts | 300° |
| 2026-05-05 22:33 | 49.25805 | 8.72825 | 37840 ft | 457 kts | 299° |
| 2026-05-05 22:33 | 49.29228 | 8.64616 | 37823 ft | 458 kts | 300° |
| 2026-05-05 22:34 | 49.32683 | 8.56414 | 37829 ft | 458 kts | 300° |
| 2026-05-05 22:34 | 49.36146 | 8.48227 | 37833 ft | 458 kts | 300° |
| 2026-05-05 22:35 | 49.39592 | 8.40066 | 37834 ft | 458 kts | 300° |
| 2026-05-05 22:35 | 49.43053 | 8.31842 | 37829 ft | 460 kts | 300° |
| 2026-05-05 22:36 | 49.46499 | 8.23626 | 37822 ft | 461 kts | 300° |
| 2026-05-05 22:36 | 49.49961 | 8.15346 | 37824 ft | 460 kts | 300° |
| 2026-05-05 22:37 | 49.53419 | 8.07050 | 37834 ft | 460 kts | 300° |
| 2026-05-05 22:37 | 49.56867 | 7.98751 | 37812 ft | 460 kts | 300° |
| 2026-05-05 22:38 | 49.60308 | 7.90442 | 37824 ft | 460 kts | 300° |
| 2026-05-05 22:38 | 49.63740 | 7.82129 | 37805 ft | 460 kts | 300° |
| 2026-05-05 22:39 | 49.67167 | 7.73802 | 37811 ft | 460 kts | 299° |
| 2026-05-05 22:39 | 49.70587 | 7.65466 | 37821 ft | 459 kts | 300° |
| 2026-05-05 22:40 | 49.74002 | 7.57117 | 37809 ft | 459 kts | 300° |
| 2026-05-05 22:40 | 49.77412 | 7.48753 | 37815 ft | 460 kts | 300° |
| 2026-05-05 22:41 | 49.80827 | 7.40348 | 37809 ft | 462 kts | 300° |
| 2026-05-05 22:41 | 49.84245 | 7.31909 | 37799 ft | 463 kts | 299° |
| 2026-05-05 22:42 | 49.87653 | 7.23471 | 37807 ft | 462 kts | 300° |
| 2026-05-05 22:42 | 49.91029 | 7.15085 | 37799 ft | 461 kts | 300° |
| 2026-05-05 22:43 | 49.94421 | 7.06628 | 37800 ft | 462 kts | 300° |
| 2026-05-05 22:43 | 49.97804 | 6.98171 | 37800 ft | 461 kts | 299° |
| 2026-05-05 22:44 | 50.01179 | 6.89703 | 37793 ft | 461 kts | 300° |
| 2026-05-05 22:44 | 50.04546 | 6.81230 | 37815 ft | 461 kts | 299° |
| 2026-05-05 22:45 | 50.07919 | 6.72713 | 37811 ft | 463 kts | 299° |
| 2026-05-05 22:45 | 50.11303 | 6.64138 | 37778 ft | 465 kts | 299° |
| 2026-05-05 22:46 | 50.14682 | 6.55553 | 37779 ft | 464 kts | 299° |
| 2026-05-05 22:46 | 50.18112 | 6.47046 | 37772 ft | 464 kts | 305° |
| 2026-05-05 22:47 | 50.21808 | 6.40997 | 37808 ft | 466 kts | 318° |
| 2026-05-05 22:47 | 50.26830 | 6.34612 | 37794 ft | 465 kts | 319° |
| 2026-05-05 22:48 | 50.31863 | 6.28222 | 37143 ft | 470 kts | 319° |
| 2026-05-05 22:48 | 50.34375 | 6.24986 | 36605 ft | 466 kts | 319° |
| 2026-05-05 22:48 | 50.36870 | 6.21747 | 36012 ft | 465 kts | 319° |
| 2026-05-05 22:48 | 50.39336 | 6.18485 | 35443 ft | 466 kts | 317° |
| 2026-05-05 22:49 | 50.41598 | 6.14836 | 34883 ft | 468 kts | 307° |
| 2026-05-05 22:49 | 50.43327 | 6.10468 | 33927 ft | 478 kts | 291° |
| 2026-05-05 22:49 | 50.44145 | 6.05374 | 32286 ft | 491 kts | 270° |
| 2026-05-05 22:49 | 50.43641 | 6.00062 | 30620 ft | 500 kts | 245° |
| 2026-05-05 22:50 | 50.41658 | 5.95663 | 29143 ft | 499 kts | 217° |
| 2026-05-05 22:50 | 50.38570 | 5.93433 | 28036 ft | 490 kts | 186° |
| 2026-05-05 22:50 | 50.35284 | 5.94156 | 27207 ft | 479 kts | 152° |
| 2026-05-05 22:50 | 50.32890 | 5.97629 | 26263 ft | 476 kts | 117° |
| 2026-05-05 22:51 | 50.32303 | 6.02669 | 25100 ft | 484 kts | 81° |
| 2026-05-05 22:51 | 50.33865 | 6.07282 | 23861 ft | 496 kts | 41° |
| 2026-05-05 22:51 | 50.37001 | 6.09341 | 22739 ft | 500 kts | 1° |
| 2026-05-05 22:51 | 50.40059 | 6.07953 | 22142 ft | 491 kts | 322° |
| 2026-05-05 22:52 | 50.41725 | 6.04618 | 21968 ft | 475 kts | 289° |
| 2026-05-05 22:52 | 50.41989 | 6.00905 | 21757 ft | 462 kts | 258° |